Observation data for Denver City on 08/05/2020      Previous  Date  Next       Current Mesonet Observations  Soil Data  Daily Summary Page  Observations in Plain Language
KDVS 050500Z 16012G17KT 28/10 A3002 RMK A01 T02790097  RH  033%=      5-min Rain = 0
KDVS 050505Z 17013G18KT 28/10 A3003 RMK A01 T02800096  RH  033%=      5-min Rain = 0
KDVS 050510Z 17014G19KT 28/09 A3003 RMK A01 T02820094  RH  032%=      5-min Rain = 0
KDVS 050515Z 17014KT 28/09 A3003 RMK A01 T02820094  RH  032%=      5-min Rain = 0
KDVS 050520Z 17014G19KT 28/09 A3003 RMK A01 T02810093  RH  032%=      5-min Rain = 0
KDVS 050525Z 18014G19KT 28/09 A3002 RMK A01 T02800094  RH  032%=      5-min Rain = 0
KDVS 050530Z 18014KT 28/10 A3002 RMK A01 T02780095  RH  033%=      5-min Rain = 0
KDVS 050535Z 18014KT 28/10 A3002 RMK A01 T02760095  RH  033%=      5-min Rain = 0
KDVS 050540Z 17014KT 27/10 A3002 RMK A01 T02740096  RH  034%=      5-min Rain = 0
KDVS 050545Z 17013G18KT 27/10 A3002 RMK A01 T02730096  RH  034%=      5-min Rain = 0
KDVS 050550Z 17013KT 27/10 A3002 RMK A01 T02710096  RH  034%=      5-min Rain = 0
KDVS 050555Z 17013G19KT 27/10 A3002 RMK A01 T02700096  RH  035%=      5-min Rain = 0
KDVS 050600Z 17013KT 27/10 A3002 RMK A01 T02680097  RH  035%=      5-min Rain = 0
KDVS 050605Z 17012KT 27/10 A3002 RMK A01 T02670096  RH  035%=      5-min Rain = 0
KDVS 050610Z 18012KT 27/10 A3003 RMK A01 T02660096  RH  035%=      5-min Rain = 0
KDVS 050615Z 18011KT 27/10 A3003 RMK A01 T02650097  RH  036%=      5-min Rain = 0
KDVS 050620Z 18011KT 26/10 A3003 RMK A01 T02640098  RH  036%=      5-min Rain = 0
KDVS 050625Z 18011KT 26/10 A3003 RMK A01 T02630099  RH  037%=      5-min Rain = 0
KDVS 050630Z 18010KT 26/10 A3003 RMK A01 T02610099  RH  037%=      5-min Rain = 0
KDVS 050635Z 18010KT 26/10 A3003 RMK A01 T02600100  RH  038%=      5-min Rain = 0
KDVS 050640Z 18010KT 26/10 A3003 RMK A01 T02590101  RH  038%=      5-min Rain = 0
KDVS 050645Z 19009KT 26/10 A3003 RMK A01 T02570103  RH  039%=      5-min Rain = 0
KDVS 050650Z 19010KT 26/10 A3003 RMK A01 T02560104  RH  039%=      5-min Rain = 0
KDVS 050655Z 18010KT 26/11 A3002 RMK A01 T02550105  RH  040%=      5-min Rain = 0
KDVS 050700Z 18010KT 26/11 A3002 RMK A01 T02550105  RH  040%=      5-min Rain = 0
KDVS 050705Z 19010KT 25/11 A3002 RMK A01 T02540107  RH  041%=      5-min Rain = 0
KDVS 050710Z 19010KT 25/11 A3002 RMK A01 T02540108  RH  041%=      5-min Rain = 0
KDVS 050715Z 19010KT 25/11 A3002 RMK A01 T02540109  RH  042%=      5-min Rain = 0
KDVS 050720Z 19011KT 25/11 A3002 RMK A01 T02540111  RH  042%=      5-min Rain = 0
KDVS 050725Z 19011KT 25/11 A3002 RMK A01 T02540112  RH  042%=      5-min Rain = 0
KDVS 050730Z 19012KT 25/11 A3002 RMK A01 T02540113  RH  043%=      5-min Rain = 0
KDVS 050735Z 19011KT 25/11 A3002 RMK A01 T02540114  RH  043%=      5-min Rain = 0
KDVS 050740Z 19012KT 25/12 A3002 RMK A01 T02540115  RH  043%=      5-min Rain = 0
KDVS 050745Z 19012KT 25/12 A3001 RMK A01 T02540116  RH  044%=      5-min Rain = 0
KDVS 050750Z 19012KT 25/12 A3001 RMK A01 T02540117  RH  044%=      5-min Rain = 0
KDVS 050755Z 19011KT 25/12 A3001 RMK A01 T02530118  RH  044%=      5-min Rain = 0
KDVS 050800Z 19011KT 25/12 A3001 RMK A01 T02530118  RH  045%=      5-min Rain = 0
KDVS 050805Z 19011KT 25/12 A3001 RMK A01 T02520119  RH  045%=      5-min Rain = 0
KDVS 050810Z 19012KT 25/12 A3001 RMK A01 T02520120  RH  045%=      5-min Rain = 0
KDVS 050815Z 19011KT 25/12 A3001 RMK A01 T02520121  RH  046%=      5-min Rain = 0
KDVS 050820Z 19010KT 25/12 A3001 RMK A01 T02510122  RH  046%=      5-min Rain = 0
KDVS 050825Z 19010KT 25/12 A3001 RMK A01 T02500122  RH  047%=      5-min Rain = 0
KDVS 050830Z 19010G15KT 25/12 A3001 RMK A01 T02500122  RH  047%=      5-min Rain = 0
KDVS 050835Z 19011KT 25/12 A3001 RMK A01 T02490123  RH  047%=      5-min Rain = 0
KDVS 050840Z 19011KT 25/12 A3001 RMK A01 T02490124  RH  047%=      5-min Rain = 0
KDVS 050845Z 19010KT 25/12 A3001 RMK A01 T02480124  RH  048%=      5-min Rain = 0
KDVS 050850Z 19011G16KT 25/13 A3001 RMK A01 T02480125  RH  048%=      5-min Rain = 0
KDVS 050855Z 19011KT 25/13 A3001 RMK A01 T02470126  RH  049%=      5-min Rain = 0
KDVS 050900Z 20011KT 25/13 A3001 RMK A01 T02470126  RH  049%=      5-min Rain = 0
KDVS 050905Z 20011KT 25/13 A3001 RMK A01 T02470125  RH  049%=      5-min Rain = 0
KDVS 050910Z 20010KT 25/13 A3002 RMK A01 T02450126  RH  049%=      5-min Rain = 0
KDVS 050915Z 20010KT 24/13 A3002 RMK A01 T02440126  RH  050%=      5-min Rain = 0
KDVS 050920Z 20011KT 24/13 A3002 RMK A01 T02430127  RH  050%=      5-min Rain = 0
KDVS 050925Z 19010KT 24/13 A3002 RMK A01 T02420127  RH  050%=      5-min Rain = 0
KDVS 050930Z 18009KT 24/13 A3001 RMK A01 T02400128  RH  052%=      5-min Rain = 0
KDVS 050935Z 19009KT 24/13 A3001 RMK A01 T02380129  RH  052%=      5-min Rain = 0
KDVS 050940Z 19009KT 24/13 A3001 RMK A01 T02380129  RH  052%=      5-min Rain = 0
KDVS 050945Z 19010KT 24/13 A3001 RMK A01 T02380129  RH  052%=      5-min Rain = 0
KDVS 050950Z 19009KT 24/13 A3002 RMK A01 T02380129  RH  052%=      5-min Rain = 0
KDVS 050955Z 19009KT 24/13 A3002 RMK A01 T02380130  RH  053%=      5-min Rain = 0
KDVS 051000Z 19009KT 24/13 A3002 RMK A01 T02370130  RH  053%=      5-min Rain = 0
KDVS 051005Z 19007KT 24/13 A3002 RMK A01 T02350131  RH  054%=      5-min Rain = 0
KDVS 051010Z 18007KT 23/13 A3002 RMK A01 T02330131  RH  055%=      5-min Rain = 0
KDVS 051015Z 18007KT 23/13 A3002 RMK A01 T02320131  RH  055%=      5-min Rain = 0
KDVS 051020Z 18007KT 23/13 A3002 RMK A01 T02330131  RH  055%=      5-min Rain = 0
KDVS 051025Z 19007KT 23/13 A3002 RMK A01 T02320131  RH  055%=      5-min Rain = 0
KDVS 051030Z 19007KT 23/13 A3002 RMK A01 T02310132  RH  056%=      5-min Rain = 0
KDVS 051035Z 19007KT 23/13 A3002 RMK A01 T02300132  RH  056%=      5-min Rain = 0
KDVS 051040Z 19007KT 23/13 A3002 RMK A01 T02300132  RH  056%=      5-min Rain = 0
KDVS 051045Z 18006KT 23/13 A3002 RMK A01 T02290132  RH  056%=      5-min Rain = 0
KDVS 051050Z 18006KT 23/13 A3002 RMK A01 T02280132  RH  057%=      5-min Rain = 0
KDVS 051055Z 18007KT 23/13 A3002 RMK A01 T02270132  RH  057%=      5-min Rain = 0
KDVS 051100Z 18007KT 23/13 A3002 RMK A01 T02270132  RH  057%=      5-min Rain = 0
KDVS 051105Z 19007KT 23/13 A3002 RMK A01 T02270133  RH  057%=      5-min Rain = 0
KDVS 051110Z 18006KT 23/13 A3002 RMK A01 T02260133  RH  058%=      5-min Rain = 0
KDVS 051115Z 17006KT 23/13 A3002 RMK A01 T02250133  RH  058%=      5-min Rain = 0
KDVS 051120Z 17006KT 22/13 A3002 RMK A01 T02240134  RH  059%=      5-min Rain = 0
KDVS 051125Z 17006KT 22/13 A3002 RMK A01 T02240134  RH  059%=      5-min Rain = 0
KDVS 051130Z 17006KT 23/13 A3002 RMK A01 T02250134  RH  059%=      5-min Rain = 0
KDVS 051135Z 18007KT 23/13 A3002 RMK A01 T02260134  RH  058%=      5-min Rain = 0
KDVS 051140Z 17007KT 23/13 A3002 RMK A01 T02280134  RH  058%=      5-min Rain = 0
KDVS 051145Z 17007KT 23/13 A3002 RMK A01 T02290134  RH  057%=      5-min Rain = 0
KDVS 051150Z 17007KT 23/13 A3002 RMK A01 T02280134  RH  057%=      5-min Rain = 0
KDVS 051155Z 17007KT 23/14 A3003 RMK A01 T02280135  RH  058%=      5-min Rain = 0
KDVS 051200Z 16006KT 23/14 A3003 RMK A01 T02270136  RH  059%=      5-min Rain = 0
KDVS 051205Z 15007KT 23/14 A3003 RMK A01 T02250137  RH  060%=      5-min Rain = 0
KDVS 051210Z 15005KT 22/14 A3003 RMK A01 T02240138  RH  061%=      5-min Rain = 0
KDVS 051215Z 15005KT 22/14 A3003 RMK A01 T02240137  RH  060%=      5-min Rain = 0
KDVS 051220Z 15005KT 22/14 A3003 RMK A01 T02240137  RH  060%=      5-min Rain = 0
KDVS 051225Z 16005KT 23/14 A3003 RMK A01 T02250138  RH  060%=      5-min Rain = 0
KDVS 051230Z 15006KT 23/14 A3004 RMK A01 T02250138  RH  060%=      5-min Rain = 0
KDVS 051235Z 15006KT 23/14 A3004 RMK A01 T02250138  RH  060%=      5-min Rain = 0
KDVS 051240Z 15008KT 23/14 A3004 RMK A01 T02250138  RH  060%=      5-min Rain = 0
KDVS 051245Z 16011KT 23/14 A3004 RMK A01 T02270138  RH  059%=      5-min Rain = 0
KDVS 051250Z 17013G18KT 23/14 A3004 RMK A01 T02300138  RH  059%=      5-min Rain = 0
KDVS 051255Z 18016KT 23/14 A3003 RMK A01 T02280140  RH  060%=      5-min Rain = 0
KDVS 051300Z 18017KT 23/14 A3003 RMK A01 T02290140  RH  059%=      5-min Rain = 0
KDVS 051305Z 19017G22KT 23/14 A3003 RMK A01 T02330138  RH  057%=      5-min Rain = 0
KDVS 051310Z 19018KT 24/14 A3003 RMK A01 T02350137  RH  056%=      5-min Rain = 0
KDVS 051315Z 19014G20KT 24/14 A3004 RMK A01 T02350138  RH  057%=      5-min Rain = 0
KDVS 051320Z 07007KT 23/14 A3007 RMK A01 T02340141  RH  058%=      5-min Rain = 0
KDVS 051325Z 04008G13KT 24/14 A3008 RMK A01 T02360137  RH  056%=      5-min Rain = 0
KDVS 051330Z 13008G19KT 24/14 A3008 RMK A01 T02410135  RH  054%=      5-min Rain = 0
KDVS 051335Z 18015G20KT 24/14 A3007 RMK A01 T02410136  RH  054%=      5-min Rain = 0
KDVS 051340Z 16014G19KT 23/15 A3007 RMK A01 T02290146  RH  062%=      5-min Rain = 0.01
KDVS 051345Z 13016KT 22/15 A3008 RMK A01 T02180152  RH  069%=      5-min Rain = 0
KDVS 051350Z 13018KT 22/15 A3007 RMK A01 T02170152  RH  069%=      5-min Rain = 0
KDVS 051355Z 15018KT 22/15 A3006 RMK A01 T02170151  RH  069%=      5-min Rain = 0
KDVS 051400Z 14019KT 22/15 A3005 RMK A01 T02160152  RH  070%=      5-min Rain = 0
KDVS 051405Z 12017KT 22/15 A3006 RMK A01 T02180152  RH  069%=      5-min Rain = 0
KDVS 051410Z 13016G23KT 22/15 A3006 RMK A01 T02190152  RH  069%=      5-min Rain = 0
KDVS 051415Z 13018G24KT 22/15 A3006 RMK A01 T02190152  RH  068%=      5-min Rain = 0
KDVS 051420Z 13014G22KT 22/15 A3006 RMK A01 T02180152  RH  069%=      5-min Rain = 0
KDVS 051425Z 12009G15KT 22/15 A3007 RMK A01 T02210151  RH  067%=      5-min Rain = 0
KDVS 051430Z 31006G12KT 23/15 A3009 RMK A01 T02250151  RH  066%=      5-min Rain = 0
KDVS 051435Z 26011G23KT 22/16 A301 RMK A01 T02230155  RH  068%=      5-min Rain = 0.01
KDVS 051440Z 27011G26KT 23/14 A3011 RMK A01 T02330143  RH  060%=      5-min Rain = 0
KDVS 051445Z 20008G13KT 24/14 A3011 RMK A01 T02370143  RH  058%=      5-min Rain = 0
KDVS 051450Z 16006KT 24/15 A301 RMK A01 T02350146  RH  060%=      5-min Rain = 0
KDVS 051455Z 18011G19KT 24/15 A301 RMK A01 T02350146  RH  060%=      5-min Rain = 0
KDVS 051500Z 18010KT 23/15 A3011 RMK A01 T02340150  RH  062%=      5-min Rain = 0
KDVS 051505Z 18011KT 24/15 A301 RMK A01 T02350151  RH  062%=      5-min Rain = 0
KDVS 051510Z 15011KT 24/15 A301 RMK A01 T02350154  RH  063%=      5-min Rain = 0
KDVS 051515Z 15010KT 24/15 A3009 RMK A01 T02360153  RH  062%=      5-min Rain = 0
KDVS 051520Z 13011KT 24/16 A3008 RMK A01 T02360155  RH  063%=      5-min Rain = 0
KDVS 051525Z 13013KT 24/15 A3008 RMK A01 T02360153  RH  062%=      5-min Rain = 0
KDVS 051530Z 15010KT 24/15 A3008 RMK A01 T02370152  RH  062%=      5-min Rain = 0
KDVS 051535Z 17008KT 24/16 A3008 RMK A01 T02380155  RH  063%=      5-min Rain = 0
KDVS 051540Z 23006KT 24/16 A3009 RMK A01 T02360162  RH  066%=      5-min Rain = 0
KDVS 051545Z 25002KT 24/16 A301 RMK A01 T02360158  RH  065%=      5-min Rain = 0
KDVS 051550Z 08005G10KT 24/16 A3011 RMK A01 T02400157  RH  063%=      5-min Rain = 0
KDVS 051555Z 06009KT 25/16 A3011 RMK A01 T02460155  RH  060%=      5-min Rain = 0
KDVS 051600Z 05012KT 25/15 A3011 RMK A01 T02530153  RH  057%=      5-min Rain = 0
KDVS 051605Z 08010KT 26/15 A3011 RMK A01 T02570151  RH  055%=      5-min Rain = 0
KDVS 051610Z 10009KT 26/15 A301 RMK A01 T02570148  RH  053%=      5-min Rain = 0
KDVS 051615Z 09010KT 26/15 A3011 RMK A01 T02580147  RH  052%=      5-min Rain = 0
KDVS 051620Z 07011KT 26/15 A3011 RMK A01 T02590146  RH  052%=      5-min Rain = 0
KDVS 051625Z 08009KT 26/15 A3011 RMK A01 T02580146  RH  052%=      5-min Rain = 0
KDVS 051630Z 10010KT 26/15 A301 RMK A01 T02600147  RH  052%=      5-min Rain = 0
KDVS 051635Z 09012KT 26/15 A301 RMK A01 T02610145  RH  051%=      5-min Rain = 0
KDVS 051640Z 09012KT 26/15 A301 RMK A01 T02600148  RH  052%=      5-min Rain = 0
KDVS 051645Z 10007KT 26/15 A301 RMK A01 T02610148  RH  052%=      5-min Rain = 0
KDVS 051650Z 09009KT 26/15 A301 RMK A01 T02640149  RH  051%=      5-min Rain = 0
KDVS 051655Z 09011KT 27/15 A301 RMK A01 T02660149  RH  051%=      5-min Rain = 0
KDVS 051700Z 10010KT 27/15 A3009 RMK A01 T02670146  RH  049%=      5-min Rain = 0
KDVS 051705Z 11011KT 27/15 A3009 RMK A01 T02700145  RH  048%=      5-min Rain = 0
KDVS 051710Z 09013KT 27/14 A3009 RMK A01 T02720144  RH  047%=      5-min Rain = 0
KDVS 051715Z 07014KT 27/15 A3009 RMK A01 T02700150  RH  050%=      5-min Rain = 0
KDVS 051720Z 10013KT 27/15 A3008 RMK A01 T02700148  RH  049%=      5-min Rain = 0
KDVS 051725Z 11012KT 27/15 A3008 RMK A01 T02720149  RH  049%=      5-min Rain = 0
KDVS 051730Z 10012KT 28/15 A3008 RMK A01 T02770146  RH  047%=      5-min Rain = 0
KDVS 051735Z 09012KT 28/15 A3008 RMK A01 T02800145  RH  046%=      5-min Rain = 0
KDVS 051740Z 09012G17KT 28/15 A3008 RMK A01 T02770149  RH  048%=      5-min Rain = 0
KDVS 051745Z 11010KT 28/15 A3008 RMK A01 T02780150  RH  048%=      5-min Rain = 0
KDVS 051750Z 11008KT 28/15 A3008 RMK A01 T02830150  RH  046%=      5-min Rain = 0
KDVS 051755Z 10007KT 29/15 A3008 RMK A01 T02890148  RH  044%=      5-min Rain = 0
KDVS 051800Z 10007KT 29/14 A3008 RMK A01 T02910141  RH  042%=      5-min Rain = 0
KDVS 051805Z 11007KT 29/14 A3007 RMK A01 T02890141  RH  042%=      5-min Rain = 0
KDVS 051810Z 12007KT 30/14 A3007 RMK A01 T02950141  RH  041%=      5-min Rain = 0
KDVS 051815Z 11005KT 30/14 A3006 RMK A01 T03000142  RH  040%=      5-min Rain = 0
KDVS 051820Z 10005G10KT 31/14 A3006 RMK A01 T03070141  RH  038%=      5-min Rain = 0
KDVS 051825Z 11006KT 32/14 A3006 RMK A01 T03150139  RH  036%=      5-min Rain = 0
KDVS 051830Z 12006KT 31/14 A3006 RMK A01 T03140137  RH  036%=      5-min Rain = 0
KDVS 051835Z 13006KT 32/14 A3006 RMK A01 T03180135  RH  034%=      5-min Rain = 0
KDVS 051840Z 11004KT 32/13 A3005 RMK A01 T03180134  RH  034%=      5-min Rain = 0
KDVS 051845Z 13004G9KT 32/13 A3006 RMK A01 T03180133  RH  034%=      5-min Rain = 0
KDVS 051850Z 13004KT 32/13 A3006 RMK A01 T03200130  RH  033%=      5-min Rain = 0
KDVS 051855Z 14003KT 32/13 A3005 RMK A01 T03210130  RH  033%=      5-min Rain = 0
KDVS 051900Z 10003KT 32/13 A3006 RMK A01 T03240130  RH  032%=      5-min Rain = 0
KDVS 051905Z 08002KT 33/13 A3006 RMK A01 T03260129  RH  031%=      5-min Rain = 0
KDVS 051910Z 10003KT 33/13 A3005 RMK A01 T03250130  RH  032%=      5-min Rain = 0
KDVS 051915Z 19004KT 33/13 A3005 RMK A01 T03280129  RH  031%=      5-min Rain = 0
KDVS 051920Z 20004KT 33/13 A3005 RMK A01 T03310129  RH  031%=      5-min Rain = 0
KDVS 051925Z 22003KT 33/13 A3005 RMK A01 T03290129  RH  031%=      5-min Rain = 0
KDVS 051930Z 26004KT 33/13 A3005 RMK A01 T03300131  RH  031%=      5-min Rain = 0
KDVS 051935Z 32001KT 34/13 A3005 RMK A01 T03360130  RH  030%=      5-min Rain = 0
KDVS 051940Z 29003KT 34/13 A3004 RMK A01 T03400128  RH  029%=      5-min Rain = 0
KDVS 051945Z 25004KT 34/13 A3004 RMK A01 T03420126  RH  028%=      5-min Rain = 0
KDVS 051950Z 21004KT 34/13 A3004 RMK A01 T03430125  RH  028%=      5-min Rain = 0
KDVS 051955Z 15002KT 34/12 A3004 RMK A01 T03430121  RH  027%=      5-min Rain = 0
KDVS 052000Z 23003G8KT 35/13 A3004 RMK A01 T03450125  RH  027%=      5-min Rain = 0
KDVS 052005Z 27006KT 35/12 A3003 RMK A01 T03470124  RH  027%=      5-min Rain = 0
KDVS 052010Z 22006KT 35/12 A3003 RMK A01 T03470120  RH  026%=      5-min Rain = 0
KDVS 052015Z 22006KT 35/12 A3003 RMK A01 T03450121  RH  027%=      5-min Rain = 0
KDVS 052020Z 20002G7KT 35/12 A3003 RMK A01 T03490121  RH  026%=      5-min Rain = 0
KDVS 052025Z 26004KT 35/12 A3003 RMK A01 T03500119  RH  026%=      5-min Rain = 0
KDVS 052030Z 23005KT 35/12 A3003 RMK A01 T03500118  RH  025%=      5-min Rain = 0
KDVS 052035Z 25005KT 35/12 A3002 RMK A01 T03470119  RH  026%=      5-min Rain = 0
KDVS 052040Z 24006G12KT 35/12 A3002 RMK A01 T03490121  RH  026%=      5-min Rain = 0
KDVS 052045Z 21004KT 35/12 A3002 RMK A01 T03510119  RH  026%=      5-min Rain = 0
KDVS 052050Z 24006G11KT 35/12 A3002 RMK A01 T03510119  RH  025%=      5-min Rain = 0
KDVS 052055Z 24005KT 35/12 A3002 RMK A01 T03530118  RH  025%=      5-min Rain = 0
KDVS 052100Z 25002KT 36/12 A3002 RMK A01 T03560119  RH  025%=      5-min Rain = 0
KDVS 052105Z 24004KT 36/12 A3001 RMK A01 T03590118  RH  024%=      5-min Rain = 0
KDVS 052110Z 25003KT 36/12 A3001 RMK A01 T03570117  RH  024%=      5-min Rain = 0
KDVS 052115Z 21004KT 36/12 A3001 RMK A01 T03580117  RH  024%=      5-min Rain = 0
KDVS 052120Z 25002KT 36/12 A30 RMK A01 T03560117  RH  024%=      5-min Rain = 0
KDVS 052125Z 26003KT 36/11 A30 RMK A01 T03610113  RH  023%=      5-min Rain = 0
KDVS 052130Z 28002KT 36/11 A30 RMK A01 T03600112  RH  023%=      5-min Rain = 0
KDVS 052135Z 28004KT 36/11 A30 RMK A01 T03610112  RH  023%=      5-min Rain = 0
KDVS 052140Z 26003KT 36/11 A2999 RMK A01 T03620114  RH  023%=      5-min Rain = 0
KDVS 052145Z 23003KT 37/11 A2999 RMK A01 T03660113  RH  023%=      5-min Rain = 0
KDVS 052150Z 21004KT 37/11 A2999 RMK A01 T03660111  RH  022%=      5-min Rain = 0
KDVS 052155Z 20004KT 37/11 A2998 RMK A01 T03660112  RH  022%=      5-min Rain = 0
KDVS 052200Z 22002KT 37/11 A2998 RMK A01 T03670110  RH  022%=      5-min Rain = 0
KDVS 052205Z 20003KT 37/11 A2998 RMK A01 T03690111  RH  022%=      5-min Rain = 0
KDVS 052210Z 21004KT 37/11 A2997 RMK A01 T03690111  RH  022%=      5-min Rain = 0
KDVS 052215Z 16006KT 37/11 A2997 RMK A01 T03690111  RH  022%=      5-min Rain = 0
KDVS 052220Z 15002KT 37/11 A2997 RMK A01 T03700108  RH  021%=      5-min Rain = 0
KDVS 052225Z 18003KT 37/11 A2997 RMK A01 T03730108  RH  021%=      5-min Rain = 0
KDVS 052230Z 24003KT 37/11 A2996 RMK A01 T03700106  RH  021%=      5-min Rain = 0
KDVS 052235Z 17006G12KT 37/11 A2996 RMK A01 T03730107  RH  021%=      5-min Rain = 0
KDVS 052240Z 15010G15KT 37/10 A2996 RMK A01 T03740104  RH  020%=      5-min Rain = 0
KDVS 052245Z 13007KT 38/10 A2996 RMK A01 T03750102  RH  020%=      5-min Rain = 0
KDVS 052250Z 14005KT 38/10 A2996 RMK A01 T03750104  RH  020%=      5-min Rain = 0
KDVS 052255Z 17008KT 38/10 A2996 RMK A01 T03760103  RH  020%=      5-min Rain = 0
KDVS 052300Z 19005G12KT 38/10 A2995 RMK A01 T03760104  RH  020%=      5-min Rain = 0
KDVS 052305Z 19007G15KT 38/10 A2995 RMK A01 T03750104  RH  020%=      5-min Rain = 0
KDVS 052310Z 17004KT 37/10 A2995 RMK A01 T03740103  RH  020%=      5-min Rain = 0
KDVS 052315Z 16007KT 38/10 A2995 RMK A01 T03760103  RH  020%=      5-min Rain = 0
KDVS 052320Z 16008G13KT 38/10 A2995 RMK A01 T03750103  RH  020%=      5-min Rain = 0
KDVS 052325Z 18008KT 37/10 A2995 RMK A01 T03730103  RH  020%=      5-min Rain = 0
KDVS 052330Z 18006KT 37/10 A2995 RMK A01 T03700104  RH  021%=      5-min Rain = 0
KDVS 052335Z 13007KT 37/11 A2995 RMK A01 T03680106  RH  021%=      5-min Rain = 0
KDVS 052340Z 14007G13KT 37/11 A2995 RMK A01 T03650105  RH  021%=      5-min Rain = 0
KDVS 052345Z 17007KT 36/11 A2995 RMK A01 T03630106  RH  022%=      5-min Rain = 0
KDVS 052350Z 15006KT 36/11 A2995 RMK A01 T03620107  RH  022%=      5-min Rain = 0
KDVS 052355Z 15006KT 36/11 A2994 RMK A01 T03620108  RH  022%=      5-min Rain = 0
KDVS 060000Z 15006KT 36/11 A2994 RMK A01 T03630107  RH  022%=      5-min Rain = 0
KDVS 060005Z 15007KT 37/11 A2994 RMK A01 T03670108  RH  022%=      5-min Rain = 0
KDVS 060010Z 15006KT 37/11 A2994 RMK A01 T03710106  RH  021%=      5-min Rain = 0
KDVS 060015Z 14008KT 37/11 A2994 RMK A01 T03700105  RH  021%=      5-min Rain = 0
KDVS 060020Z 14007KT 37/10 A2994 RMK A01 T03650104  RH  021%=      5-min Rain = 0
KDVS 060025Z 13007KT 36/10 A2994 RMK A01 T03620104  RH  022%=      5-min Rain = 0
KDVS 060030Z 14007KT 36/10 A2994 RMK A01 T03610104  RH  022%=      5-min Rain = 0
KDVS 060035Z 13006KT 36/11 A2994 RMK A01 T03630105  RH  022%=      5-min Rain = 0
KDVS 060040Z 14006KT 36/11 A2995 RMK A01 T03620105  RH  022%=      5-min Rain = 0
KDVS 060045Z 15007KT 36/10 A2995 RMK A01 T03620104  RH  022%=      5-min Rain = 0
KDVS 060050Z 14006KT 36/11 A2995 RMK A01 T03590105  RH  022%=      5-min Rain = 0
KDVS 060055Z 15006KT 35/11 A2995 RMK A01 T03540106  RH  023%=      5-min Rain = 0
KDVS 060100Z 14006KT 35/11 A2995 RMK A01 T03500109  RH  024%=      5-min Rain = 0
KDVS 060105Z 14005KT 35/11 A2995 RMK A01 T03450112  RH  025%=      5-min Rain = 0
KDVS 060110Z 14005KT 34/12 A2995 RMK A01 T03390117  RH  027%=      5-min Rain = 0
KDVS 060115Z 14005KT 33/12 A2995 RMK A01 T03340121  RH  029%=      5-min Rain = 0
KDVS 060120Z 13005KT 33/12 A2995 RMK A01 T03290123  RH  030%=      5-min Rain = 0
KDVS 060125Z 13005KT 33/12 A2995 RMK A01 T03260124  RH  030%=      5-min Rain = 0
KDVS 060130Z 13004KT 32/13 A2995 RMK A01 T03230126  RH  031%=      5-min Rain = 0
KDVS 060135Z 13004KT 32/13 A2995 RMK A01 T03210128  RH  032%=      5-min Rain = 0
KDVS 060140Z 14004KT 32/13 A2995 RMK A01 T03190129  RH  033%=      5-min Rain = 0
KDVS 060145Z 16005KT 32/13 A2995 RMK A01 T03180131  RH  033%=      5-min Rain = 0
KDVS 060150Z 24007KT 32/13 A2996 RMK A01 T03200127  RH  032%=      5-min Rain = 0
KDVS 060155Z 25007KT 33/12 A2996 RMK A01 T03250118  RH  029%=      5-min Rain = 0
KDVS 060200Z 23006KT 32/12 A2996 RMK A01 T03220116  RH  029%=      5-min Rain = 0
KDVS 060205Z 20004KT 32/12 A2996 RMK A01 T03210116  RH  030%=      5-min Rain = 0
KDVS 060210Z 13004KT 31/13 A2996 RMK A01 T03130125  RH  033%=      5-min Rain = 0
KDVS 060215Z 15006KT 31/12 A2996 RMK A01 T03120116  RH  031%=      5-min Rain = 0
KDVS 060220Z 17009KT 32/11 A2996 RMK A01 T03190106  RH  028%=      5-min Rain = 0
KDVS 060225Z 19008KT 32/11 A2996 RMK A01 T03200106  RH  028%=      5-min Rain = 0
KDVS 060230Z 19008KT 31/12 A2997 RMK A01 T03130115  RH  031%=      5-min Rain = 0
KDVS 060235Z 17009KT 31/11 A2997 RMK A01 T03130106  RH  029%=      5-min Rain = 0
KDVS 060240Z 17010KT 32/10 A2997 RMK A01 T03170101  RH  027%=      5-min Rain = 0
KDVS 060245Z 17010G16KT 32/10 A2997 RMK A01 T03150102  RH  028%=      5-min Rain = 0
KDVS 060250Z 17015KT 32/10 A2998 RMK A01 T03180100  RH  027%=      5-min Rain = 0
KDVS 060255Z 17017G23KT 32/10 A2998 RMK A01 T03170103  RH  028%=      5-min Rain = 0
KDVS 060300Z 17019G26KT 32/10 A2998 RMK A01 T03160101  RH  028%=      5-min Rain = 0
KDVS 060305Z 17014KT 31/10 A2998 RMK A01 T03120100  RH  028%=      5-min Rain = 0
KDVS 060310Z 17014KT 31/10 A2998 RMK A01 T03090099  RH  028%=      5-min Rain = 0
KDVS 060315Z 17015G26KT 31/10 A2998 RMK A01 T03070102  RH  029%=      5-min Rain = 0
KDVS 060320Z 19018G23KT 31/11 A2999 RMK A01 T03070108  RH  030%=      5-min Rain = 0
KDVS 060325Z 19017KT 31/11 A2999 RMK A01 T03050108  RH  031%=      5-min Rain = 0
KDVS 060330Z 20016G21KT 30/11 A2999 RMK A01 T03030107  RH  031%=      5-min Rain = 0
KDVS 060335Z 20014G19KT 30/11 A2999 RMK A01 T02990108  RH  032%=      5-min Rain = 0
KDVS 060340Z 20015KT 30/11 A2999 RMK A01 T02980107  RH  032%=      5-min Rain = 0
KDVS 060345Z 20014KT 30/11 A2999 RMK A01 T02980105  RH  031%=      5-min Rain = 0
KDVS 060350Z 21013G18KT 30/11 A2999 RMK A01 T02970105  RH  031%=      5-min Rain = 0
KDVS 060355Z 21012KT 30/11 A2999 RMK A01 T02960106  RH  032%=      5-min Rain = 0
KDVS 060400Z 21010KT 29/11 A2999 RMK A01 T02930110  RH  033%=      5-min Rain = 0
KDVS 060405Z 22009KT 29/11 A2999 RMK A01 T02900112  RH  034%=      5-min Rain = 0
KDVS 060410Z 22009KT 29/11 A2999 RMK A01 T02900112  RH  035%=      5-min Rain = 0
KDVS 060415Z 21010KT 29/11 A2999 RMK A01 T02900110  RH  034%=      5-min Rain = 0
KDVS 060420Z 20011G16KT 29/10 A2999 RMK A01 T02940102  RH  031%=      5-min Rain = 0
KDVS 060425Z 20016G22KT 31/08 A2999 RMK A01 T03060084  RH  026%=      5-min Rain = 0
KDVS 060430Z 20018G23KT 31/08 A2998 RMK A01 T03100078  RH  024%=      5-min Rain = 0
KDVS 060435Z 20014KT 31/08 A2998 RMK A01 T03110077  RH  024%=      5-min Rain = 0
KDVS 060440Z 20014G19KT 31/07 A2998 RMK A01 T03130073  RH  023%=      5-min Rain = 0
KDVS 060445Z 21013KT 32/07 A2999 RMK A01 T03160071  RH  022%=      5-min Rain = 0
KDVS 060450Z 22011KT 31/08 A2999 RMK A01 T03120076  RH  024%=      5-min Rain = 0
KDVS 060455Z 23011KT 31/08 A2999 RMK A01 T03070082  RH  025%=      5-min Rain = 0

Page generated in 0.0255 seconds.